sensor_id;sensor_type;location;lat;lon;timestamp;pressure;altitude;pressure_sealevel;temperature;humidity
48872;BME280;36154;51.674;7.824;2023-04-29T00:01:42;100399.56;;;20.85;52.01
48872;BME280;36154;51.674;7.824;2023-04-29T00:04:07;100407.34;;;20.85;52.00
48872;BME280;36154;51.674;7.824;2023-04-29T00:06:33;100407.34;;;20.85;52.11
48872;BME280;36154;51.674;7.824;2023-04-29T00:08:58;100400.44;;;20.85;51.93
48872;BME280;36154;51.674;7.824;2023-04-29T00:11:23;100407.34;;;20.85;51.92
48872;BME280;36154;51.674;7.824;2023-04-29T00:13:49;100404.75;;;20.85;51.94
48872;BME280;36154;51.674;7.824;2023-04-29T00:16:14;100406.44;;;20.86;52.11
48872;BME280;36154;51.674;7.824;2023-04-29T00:18:39;100409.03;;;20.86;52.12
48872;BME280;36154;51.674;7.824;2023-04-29T00:21:05;100409.03;;;20.86;52.09
48872;BME280;36154;51.674;7.824;2023-04-29T00:23:34;100404.66;;;20.88;52.05
48872;BME280;36154;51.674;7.824;2023-04-29T00:25:59;100421.88;;;20.89;52.12
48872;BME280;36154;51.674;7.824;2023-04-29T00:28:25;100421.88;;;20.89;52.48
48872;BME280;36154;51.674;7.824;2023-04-29T00:30:50;100420.97;;;20.90;52.19
48872;BME280;36154;51.674;7.824;2023-04-29T00:33:15;100420.97;;;20.90;52.62
48872;BME280;36154;51.674;7.824;2023-04-29T00:35:41;100422.72;;;20.90;52.10
48872;BME280;36154;51.674;7.824;2023-04-29T00:38:06;100424.44;;;20.91;52.30
48872;BME280;36154;51.674;7.824;2023-04-29T00:40:32;100423.50;;;20.92;52.09
48872;BME280;36154;51.674;7.824;2023-04-29T00:42:57;100427.81;;;20.93;51.98
48872;BME280;36154;51.674;7.824;2023-04-29T00:45:22;100432.16;;;20.92;52.22
48872;BME280;36154;51.674;7.824;2023-04-29T00:47:48;100434.69;;;20.94;52.09
48872;BME280;36154;51.674;7.824;2023-04-29T00:50:13;100433.81;;;20.93;52.06
48872;BME280;36154;51.674;7.824;2023-04-29T00:52:39;100440.69;;;20.94;52.16
48872;BME280;36154;51.674;7.824;2023-04-29T00:55:06;100443.28;;;20.94;52.23
48872;BME280;36154;51.674;7.824;2023-04-29T00:57:33;100443.28;;;20.94;52.30
48872;BME280;36154;51.674;7.824;2023-04-29T00:59:59;100451.06;;;20.94;52.22
48872;BME280;36154;51.674;7.824;2023-04-29T01:02:24;100457.06;;;20.95;52.19
48872;BME280;36154;51.674;7.824;2023-04-29T01:04:50;100461.44;;;20.94;52.25
48872;BME280;36154;51.674;7.824;2023-04-29T01:07:50;100452.75;;;20.95;52.12
48872;BME280;36154;51.674;7.824;2023-04-29T01:13:02;100458.88;;;20.93;52.18
48872;BME280;36154;51.674;7.824;2023-04-29T01:15:42;100464.09;;;20.91;52.16
48872;BME280;36154;51.674;7.824;2023-04-29T01:18:15;100466.69;;;20.91;52.18
48872;BME280;36154;51.674;7.824;2023-04-29T01:20:43;100465.81;;;20.92;52.21
48872;BME280;36154;51.674;7.824;2023-04-29T01:23:09;100467.50;;;20.93;52.29
48872;BME280;36154;51.674;7.824;2023-04-29T01:25:35;100474.38;;;20.94;52.13
48872;BME280;36154;51.674;7.824;2023-04-29T01:31:45;100470.94;;;20.94;52.32
48872;BME280;36154;51.674;7.824;2023-04-29T01:41:42;100491.66;;;20.94;52.23
48872;BME280;36154;51.674;7.824;2023-04-29T01:44:14;100487.31;;;20.94;52.23
48872;BME280;36154;51.674;7.824;2023-04-29T01:46:42;100489.06;;;20.94;52.21
48872;BME280;36154;51.674;7.824;2023-04-29T01:49:08;100493.38;;;20.93;52.14
48872;BME280;36154;51.674;7.824;2023-04-29T01:51:33;100496.84;;;20.94;52.23
48872;BME280;36154;51.674;7.824;2023-04-29T01:53:58;100496.84;;;20.94;52.23
48872;BME280;36154;51.674;7.824;2023-04-29T01:56:24;100499.47;;;20.92;52.18
48872;BME280;36154;51.674;7.824;2023-04-29T01:58:49;100502.03;;;20.94;52.30
48872;BME280;36154;51.674;7.824;2023-04-29T02:01:14;100502.03;;;20.94;52.35
48872;BME280;36154;51.674;7.824;2023-04-29T02:03:40;100508.03;;;20.94;52.31
48872;BME280;36154;51.674;7.824;2023-04-29T02:06:05;100506.28;;;20.95;52.20
48872;BME280;36154;51.674;7.824;2023-04-29T02:08:31;100508.88;;;20.95;52.24
48872;BME280;36154;51.674;7.824;2023-04-29T02:10:57;100509.72;;;20.95;52.14
48872;BME280;36154;51.674;7.824;2023-04-29T02:13:26;100512.38;;;20.94;52.29
48872;BME280;36154;51.674;7.824;2023-04-29T02:15:51;100520.06;;;20.95;52.31
48872;BME280;36154;51.674;7.824;2023-04-29T02:18:16;100525.25;;;20.95;52.21
48872;BME280;36154;51.674;7.824;2023-04-29T02:20:42;100525.25;;;20.95;52.09
48872;BME280;36154;51.674;7.824;2023-04-29T02:23:07;100523.59;;;20.94;51.99
48872;BME280;36154;51.674;7.824;2023-04-29T02:25:33;100525.38;;;20.92;52.25
48872;BME280;36154;51.674;7.824;2023-04-29T02:28:00;100533.91;;;20.96;52.16
48872;BME280;36154;51.674;7.824;2023-04-29T02:30:26;100532.13;;;20.96;52.28
48872;BME280;36154;51.674;7.824;2023-04-29T02:32:51;100533.03;;;20.95;52.20
48872;BME280;36154;51.674;7.824;2023-04-29T02:35:17;100539.06;;;20.96;52.12
48872;BME280;36154;51.674;7.824;2023-04-29T02:37:42;100538.16;;;20.97;52.07
48872;BME280;36154;51.674;7.824;2023-04-29T02:40:09;100549.38;;;20.97;52.04
48872;BME280;36154;51.674;7.824;2023-04-29T02:42:34;100554.56;;;20.97;52.07
48872;BME280;36154;51.674;7.824;2023-04-29T02:44:59;100554.56;;;20.97;51.93
48872;BME280;36154;51.674;7.824;2023-04-29T02:47:25;100550.22;;;20.98;51.86
48872;BME280;36154;51.674;7.824;2023-04-29T02:49:50;100549.38;;;20.97;51.95
48872;BME280;36154;51.674;7.824;2023-04-29T02:52:15;100555.41;;;20.98;51.84
48872;BME280;36154;51.674;7.824;2023-04-29T02:54:43;100557.94;;;20.99;52.08
48872;BME280;36154;51.674;7.824;2023-04-29T02:57:09;100558.84;;;20.98;51.88
48872;BME280;36154;51.674;7.824;2023-04-29T02:59:35;100561.41;;;20.98;51.98
48872;BME280;36154;51.674;7.824;2023-04-29T03:02:01;100568.31;;;20.99;51.89
48872;BME280;36154;51.674;7.824;2023-04-29T03:04:26;100563.13;;;20.99;51.76
48872;BME280;36154;51.674;7.824;2023-04-29T03:06:54;100564.84;;;21.00;51.75
48872;BME280;36154;51.674;7.824;2023-04-29T03:09:20;100558.78;;;21.00;51.65
48872;BME280;36154;51.674;7.824;2023-04-29T03:11:46;100562.25;;;21.00;51.57
48872;BME280;36154;51.674;7.824;2023-04-29T03:14:11;100564.84;;;21.00;51.57
48872;BME280;36154;51.674;7.824;2023-04-29T03:16:36;100570.84;;;21.01;51.54
48872;BME280;36154;51.674;7.824;2023-04-29T03:19:02;100567.41;;;21.00;51.67
48872;BME280;36154;51.674;7.824;2023-04-29T03:21:29;100568.31;;;20.99;51.46
48872;BME280;36154;51.674;7.824;2023-04-29T03:23:55;100569.09;;;21.01;51.54
48872;BME280;36154;51.674;7.824;2023-04-29T03:26:20;100578.56;;;21.02;51.53
48872;BME280;36154;51.674;7.824;2023-04-29T03:28:48;100575.97;;;21.02;51.55
48872;BME280;36154;51.674;7.824;2023-04-29T03:31:13;100576.81;;;21.03;51.50
48872;BME280;36154;51.674;7.824;2023-04-29T03:33:40;100573.41;;;21.02;51.56
48872;BME280;36154;51.674;7.824;2023-04-29T03:36:06;100579.41;;;21.03;51.35
48872;BME280;36154;51.674;7.824;2023-04-29T03:38:32;100575.97;;;21.02;51.57
48872;BME280;36154;51.674;7.824;2023-04-29T03:40:58;100578.56;;;21.02;51.50
48872;BME280;36154;51.674;7.824;2023-04-29T03:43:23;100580.25;;;21.03;51.50
48872;BME280;36154;51.674;7.824;2023-04-29T03:45:48;100585.44;;;21.03;51.48
48872;BME280;36154;51.674;7.824;2023-04-29T03:48:13;100582.88;;;21.02;51.41
48872;BME280;36154;51.674;7.824;2023-04-29T03:50:39;100594.13;;;21.02;51.38
48872;BME280;36154;51.674;7.824;2023-04-29T03:53:04;100589.78;;;21.03;51.39
48872;BME280;36154;51.674;7.824;2023-04-29T03:55:30;100591.53;;;21.02;51.40
48872;BME280;36154;51.674;7.824;2023-04-29T03:57:55;100595.78;;;21.03;51.41
48872;BME280;36154;51.674;7.824;2023-04-29T04:00:20;100601.88;;;21.02;51.29
48872;BME280;36154;51.674;7.824;2023-04-29T04:02:46;100599.31;;;21.02;51.31
48872;BME280;36154;51.674;7.824;2023-04-29T04:05:11;100602.78;;;21.01;50.95
48872;BME280;36154;51.674;7.824;2023-04-29T04:07:36;100609.66;;;21.02;51.24
48872;BME280;36154;51.674;7.824;2023-04-29T04:10:02;100604.47;;;21.02;51.21
48872;BME280;36154;51.674;7.824;2023-04-29T04:12:27;100609.66;;;21.02;50.90
48872;BME280;36154;51.674;7.824;2023-04-29T04:14:52;100613.09;;;21.03;51.07
48872;BME280;36154;51.674;7.824;2023-04-29T04:17:18;100611.38;;;21.02;51.18
48872;BME280;36154;51.674;7.824;2023-04-29T04:19:43;100612.25;;;21.02;51.03
48872;BME280;36154;51.674;7.824;2023-04-29T04:22:08;100604.47;;;21.02;51.11
48872;BME280;36154;51.674;7.824;2023-04-29T04:24:33;100616.50;;;21.03;51.08
48872;BME280;36154;51.674;7.824;2023-04-29T04:26:59;100616.50;;;21.03;51.12
48872;BME280;36154;51.674;7.824;2023-04-29T04:29:25;100623.44;;;21.03;50.54
48872;BME280;36154;51.674;7.824;2023-04-29T04:31:50;100630.38;;;21.02;51.04
48872;BME280;36154;51.674;7.824;2023-04-29T04:34:15;100635.53;;;21.04;50.97
48872;BME280;36154;51.674;7.824;2023-04-29T04:36:40;100633.81;;;21.03;50.88
48872;BME280;36154;51.674;7.824;2023-04-29T04:39:06;100632.06;;;21.03;50.82
48872;BME280;36154;51.674;7.824;2023-04-29T04:41:31;100643.28;;;21.04;50.86
48872;BME280;36154;51.674;7.824;2023-04-29T04:43:57;100647.59;;;21.03;50.67
48872;BME280;36154;51.674;7.824;2023-04-29T04:46:22;100647.59;;;21.03;50.84
48872;BME280;36154;51.674;7.824;2023-04-29T04:48:47;100652.78;;;21.03;50.73
48872;BME280;36154;51.674;7.824;2023-04-29T04:51:13;100652.00;;;21.01;50.76
48872;BME280;36154;51.674;7.824;2023-04-29T04:53:39;100661.47;;;21.02;50.79
48872;BME280;36154;51.674;7.824;2023-04-29T04:56:07;100656.28;;;21.02;50.87
48872;BME280;36154;51.674;7.824;2023-04-29T04:58:32;100665.78;;;21.02;50.91
48872;BME280;36154;51.674;7.824;2023-04-29T05:00:59;100664.91;;;21.03;50.86
48872;BME280;36154;51.674;7.824;2023-04-29T05:03:24;100676.09;;;21.03;50.80
48872;BME280;36154;51.674;7.824;2023-04-29T05:05:56;100673.53;;;21.02;50.74
48872;BME280;36154;51.674;7.824;2023-04-29T05:08:22;100674.41;;;21.02;50.66
48872;BME280;36154;51.674;7.824;2023-04-29T05:10:47;100676.13;;;21.02;50.71
48872;BME280;36154;51.674;7.824;2023-04-29T05:13:13;100682.19;;;21.02;50.75
48872;BME280;36154;51.674;7.824;2023-04-29T05:15:38;100677.88;;;21.01;50.68
48872;BME280;36154;51.674;7.824;2023-04-29T05:18:03;100679.59;;;21.02;50.53
48872;BME280;36154;51.674;7.824;2023-04-29T05:20:28;100680.47;;;21.01;50.61
48872;BME280;36154;51.674;7.824;2023-04-29T05:22:54;100689.97;;;21.02;50.62
48872;BME280;36154;51.674;7.824;2023-04-29T05:25:19;100686.47;;;21.03;50.73
48872;BME280;36154;51.674;7.824;2023-04-29T05:27:44;100683.88;;;21.03;50.63
48872;BME280;36154;51.674;7.824;2023-04-29T05:30:10;100684.78;;;21.02;50.60
48872;BME280;36154;51.674;7.824;2023-04-29T05:32:36;100687.38;;;21.02;50.64
48872;BME280;36154;51.674;7.824;2023-04-29T05:35:01;100685.66;;;21.01;50.68
48872;BME280;36154;51.674;7.824;2023-04-29T05:37:26;100691.63;;;21.03;50.42
48872;BME280;36154;51.674;7.824;2023-04-29T05:39:55;100695.97;;;21.03;50.54
48872;BME280;36154;51.674;7.824;2023-04-29T05:42:20;100695.13;;;21.02;50.22
48872;BME280;36154;51.674;7.824;2023-04-29T05:44:46;100702.00;;;21.03;50.46
48872;BME280;36154;51.674;7.824;2023-04-29T05:47:11;100704.59;;;21.03;50.57
48872;BME280;36154;51.674;7.824;2023-04-29T05:49:36;100714.09;;;21.03;50.54
48872;BME280;36154;51.674;7.824;2023-04-29T05:52:03;100719.28;;;21.03;50.48
48872;BME280;36154;51.674;7.824;2023-04-29T05:54:33;100720.13;;;21.03;50.49
48872;BME280;36154;51.674;7.824;2023-04-29T05:56:59;100716.75;;;21.01;50.50
48872;BME280;36154;51.674;7.824;2023-04-29T05:59:32;100724.47;;;21.03;50.37
48872;BME280;36154;51.674;7.824;2023-04-29T06:02:00;100722.72;;;21.03;50.44
48872;BME280;36154;51.674;7.824;2023-04-29T06:04:26;100725.31;;;21.03;50.39
48872;BME280;36154;51.674;7.824;2023-04-29T06:06:55;100740.84;;;21.03;50.42
48872;BME280;36154;51.674;7.824;2023-04-29T06:09:21;100741.75;;;21.02;50.29
48872;BME280;36154;51.674;7.824;2023-04-29T06:11:49;100751.22;;;21.03;50.29
48872;BME280;36154;51.674;7.824;2023-04-29T06:14:14;100754.72;;;21.02;50.28
48872;BME280;36154;51.674;7.824;2023-04-29T06:16:40;100757.31;;;21.02;50.23
48872;BME280;36154;51.674;7.824;2023-04-29T06:19:05;100766.75;;;21.03;50.32
48872;BME280;36154;51.674;7.824;2023-04-29T06:21:30;100761.56;;;21.03;50.20
48872;BME280;36154;51.674;7.824;2023-04-29T06:23:56;100764.16;;;21.03;50.19
48872;BME280;36154;51.674;7.824;2023-04-29T06:26:22;100771.94;;;21.03;50.18
48872;BME280;36154;51.674;7.824;2023-04-29T06:28:47;100777.13;;;21.03;50.27
48872;BME280;36154;51.674;7.824;2023-04-29T06:31:12;100781.47;;;21.03;50.19
48872;BME280;36154;51.674;7.824;2023-04-29T06:33:38;100786.66;;;21.03;50.30
48872;BME280;36154;51.674;7.824;2023-04-29T06:36:03;100787.47;;;21.03;50.29
48872;BME280;36154;51.674;7.824;2023-04-29T06:38:29;100784.94;;;21.02;50.12
48872;BME280;36154;51.674;7.824;2023-04-29T06:40:55;100789.28;;;21.01;50.19
48872;BME280;36154;51.674;7.824;2023-04-29T06:43:24;100797.00;;;21.03;50.03
48872;BME280;36154;51.674;7.824;2023-04-29T06:45:50;100801.34;;;21.02;50.17
48872;BME280;36154;51.674;7.824;2023-04-29T06:48:16;100806.53;;;21.02;50.14
48872;BME280;36154;51.674;7.824;2023-04-29T06:50:48;100801.34;;;21.02;50.13
48872;BME280;36154;51.674;7.824;2023-04-29T06:53:14;100806.53;;;21.02;50.06
48872;BME280;36154;51.674;7.824;2023-04-29T06:55:39;100822.06;;;21.02;50.07
48872;BME280;36154;51.674;7.824;2023-04-29T06:58:04;100822.06;;;21.02;50.17
48872;BME280;36154;51.674;7.824;2023-04-29T07:00:30;100821.16;;;21.03;50.02
48872;BME280;36154;51.674;7.824;2023-04-29T07:02:55;100831.53;;;21.03;50.09
48872;BME280;36154;51.674;7.824;2023-04-29T07:05:21;100831.53;;;21.03;50.16
48872;BME280;36154;51.674;7.824;2023-04-29T07:07:46;100838.44;;;21.03;50.21
48872;BME280;36154;51.674;7.824;2023-04-29T07:10:11;100831.53;;;21.03;50.25
48872;BME280;36154;51.674;7.824;2023-04-29T07:12:37;100841.00;;;21.04;50.25
48872;BME280;36154;51.674;7.824;2023-04-29T07:15:02;100841.00;;;21.04;50.33
48872;BME280;36154;51.674;7.824;2023-04-29T07:17:30;100847.94;;;21.04;50.39
48872;BME280;36154;51.674;7.824;2023-04-29T07:19:56;100845.38;;;21.02;50.38
48872;BME280;36154;51.674;7.824;2023-04-29T07:22:21;100850.56;;;21.02;50.48
48872;BME280;36154;51.674;7.824;2023-04-29T07:24:46;100860.06;;;21.02;50.54
48872;BME280;36154;51.674;7.824;2023-04-29T07:27:12;100864.41;;;21.01;50.53
48872;BME280;36154;51.674;7.824;2023-04-29T07:29:37;100861.81;;;21.01;50.59
48872;BME280;36154;51.674;7.824;2023-04-29T07:32:02;100866.16;;;21.01;50.68
48872;BME280;36154;51.674;7.824;2023-04-29T07:34:28;100874.78;;;21.00;50.57
48872;BME280;36154;51.674;7.824;2023-04-29T07:36:53;100881.72;;;20.99;50.73
48872;BME280;36154;51.674;7.824;2023-04-29T07:39:18;100892.09;;;20.99;50.69
48872;BME280;36154;51.674;7.824;2023-04-29T07:41:44;100889.50;;;20.99;50.69
48872;BME280;36154;51.674;7.824;2023-04-29T07:44:10;100879.13;;;20.99;50.54
48872;BME280;36154;51.674;7.824;2023-04-29T07:46:35;100894.69;;;20.99;50.26
48872;BME280;36154;51.674;7.824;2023-04-29T07:49:00;100899.03;;;20.99;49.91
48872;BME280;36154;51.674;7.824;2023-04-29T07:51:26;100904.19;;;20.99;49.75
48872;BME280;36154;51.674;7.824;2023-04-29T07:53:53;100904.25;;;20.97;50.10
48872;BME280;36154;51.674;7.824;2023-04-29T07:56:18;100907.66;;;20.98;49.85
48872;BME280;36154;51.674;7.824;2023-04-29T07:58:44;100909.41;;;20.97;49.85
48872;BME280;36154;51.674;7.824;2023-04-29T08:01:09;100917.19;;;20.97;49.93
48872;BME280;36154;51.674;7.824;2023-04-29T08:03:36;100928.41;;;20.98;49.93
48872;BME280;36154;51.674;7.824;2023-04-29T08:06:02;100927.56;;;20.97;49.99
48872;BME280;36154;51.674;7.824;2023-04-29T08:08:29;100926.69;;;20.97;50.17
48872;BME280;36154;51.674;7.824;2023-04-29T08:10:57;100937.03;;;20.97;50.25
48872;BME280;36154;51.674;7.824;2023-04-29T08:13:23;100936.16;;;20.98;50.15
48872;BME280;36154;51.674;7.824;2023-04-29T08:15:49;100944.78;;;20.98;50.14
48872;BME280;36154;51.674;7.824;2023-04-29T08:18:14;100932.72;;;20.97;50.26
48872;BME280;36154;51.674;7.824;2023-04-29T08:20:40;100942.22;;;20.97;50.42
48872;BME280;36154;51.674;7.824;2023-04-29T08:23:05;100950.91;;;20.96;50.33
48872;BME280;36154;51.674;7.824;2023-04-29T08:25:31;100947.44;;;20.95;50.47
48872;BME280;36154;51.674;7.824;2023-04-29T08:27:56;100950.03;;;20.95;50.63
48872;BME280;36154;51.674;7.824;2023-04-29T08:30:22;100949.19;;;20.95;50.59
48872;BME280;36154;51.674;7.824;2023-04-29T08:32:47;100953.53;;;20.94;51.04
48872;BME280;36154;51.674;7.824;2023-04-29T08:35:12;100949.22;;;20.93;50.73
48872;BME280;36154;51.674;7.824;2023-04-29T08:37:40;100956.16;;;20.93;50.78
48872;BME280;36154;51.674;7.824;2023-04-29T08:40:07;100949.25;;;20.92;50.58
48872;BME280;36154;51.674;7.824;2023-04-29T08:42:35;100955.31;;;20.92;50.18
48872;BME280;36154;51.674;7.824;2023-04-29T08:45:02;100953.59;;;20.91;50.21
48872;BME280;36154;51.674;7.824;2023-04-29T08:47:32;100959.66;;;20.90;50.17
48872;BME280;36154;51.674;7.824;2023-04-29T08:50:02;100967.44;;;20.90;50.19
48872;BME280;36154;51.674;7.824;2023-04-29T08:52:29;100958.78;;;20.91;50.18
48872;BME280;36154;51.674;7.824;2023-04-29T08:54:56;100971.72;;;20.91;50.18
48872;BME280;36154;51.674;7.824;2023-04-29T08:57:24;100976.03;;;20.92;50.29
48872;BME280;36154;51.674;7.824;2023-04-29T08:59:50;100983.81;;;20.92;50.42
48872;BME280;36154;51.674;7.824;2023-04-29T09:02:16;100982.91;;;20.93;50.38
48872;BME280;36154;51.674;7.824;2023-04-29T09:05:02;100981.19;;;20.94;50.50
48872;BME280;36154;51.674;7.824;2023-04-29T09:07:30;100988.06;;;20.93;50.32
48872;BME280;36154;51.674;7.824;2023-04-29T09:09:57;100991.53;;;20.94;50.34
48872;BME280;36154;51.674;7.824;2023-04-29T09:12:23;100979.44;;;20.94;50.20
48872;BME280;36154;51.674;7.824;2023-04-29T09:14:48;100979.44;;;20.94;50.39
48872;BME280;36154;51.674;7.824;2023-04-29T09:17:14;100986.28;;;20.95;50.31
48872;BME280;36154;51.674;7.824;2023-04-29T09:19:40;100992.34;;;20.96;50.28
48872;BME280;36154;51.674;7.824;2023-04-29T09:22:08;100996.66;;;20.95;50.25
48872;BME280;36154;51.674;7.824;2023-04-29T09:24:33;100999.22;;;20.97;50.24
48872;BME280;36154;51.674;7.824;2023-04-29T09:26:59;101000.06;;;20.97;50.10
48872;BME280;36154;51.674;7.824;2023-04-29T09:29:25;100995.75;;;20.98;49.99
48872;BME280;36154;51.674;7.824;2023-04-29T09:31:51;101006.94;;;20.98;50.14
48872;BME280;36154;51.674;7.824;2023-04-29T09:34:33;101005.25;;;20.97;50.15
48872;BME280;36154;51.674;7.824;2023-04-29T09:37:22;101007.00;;;20.95;48.63
48872;BME280;36154;51.674;7.824;2023-04-29T09:39:48;101017.63;;;20.86;48.07
48872;BME280;36154;51.674;7.824;2023-04-29T09:42:13;101014.50;;;20.72;47.39
48872;BME280;36154;51.674;7.824;2023-04-29T09:44:40;101011.38;;;20.57;46.75
48872;BME280;36154;51.674;7.824;2023-04-29T09:47:07;101011.72;;;20.42;47.08
48872;BME280;36154;51.674;7.824;2023-04-29T09:52:09;101027.28;;;20.39;47.66
48872;BME280;36154;51.674;7.824;2023-04-29T09:54:36;101018.63;;;20.40;47.96
48872;BME280;36154;51.674;7.824;2023-04-29T09:57:03;101028.91;;;20.43;48.25
48872;BME280;36154;51.674;7.824;2023-04-29T09:59:30;101021.97;;;20.45;48.64
48872;BME280;36154;51.674;7.824;2023-04-29T10:01:57;101032.28;;;20.48;48.49
48872;BME280;36154;51.674;7.824;2023-04-29T10:04:24;101024.50;;;20.49;48.38
48872;BME280;36154;51.674;7.824;2023-04-29T10:06:52;101025.28;;;20.53;48.62
48872;BME280;36154;51.674;7.824;2023-04-29T10:09:19;101027.81;;;20.55;48.71
48872;BME280;36154;51.674;7.824;2023-04-29T10:11:49;101027.75;;;20.58;48.74
48872;BME280;36154;51.674;7.824;2023-04-29T10:14:19;101033.78;;;20.58;48.73
48872;BME280;36154;51.674;7.824;2023-04-29T10:17:07;101038.91;;;20.61;48.80
48872;BME280;36154;51.674;7.824;2023-04-29T10:19:39;101036.25;;;20.64;48.97
48872;BME280;36154;51.674;7.824;2023-04-29T10:22:09;101036.22;;;20.66;48.97
48872;BME280;36154;51.674;7.824;2023-04-29T10:24:37;101036.13;;;20.69;48.93
48872;BME280;36154;51.674;7.824;2023-04-29T10:27:06;101024.84;;;20.72;48.87
48872;BME280;36154;51.674;7.824;2023-04-29T10:29:33;101030.00;;;20.73;48.77
48872;BME280;36154;51.674;7.824;2023-04-29T10:31:59;101033.34;;;20.77;48.79
48872;BME280;36154;51.674;7.824;2023-04-29T10:34:27;101031.63;;;20.77;48.80
48872;BME280;36154;51.674;7.824;2023-04-29T10:36:53;101042.81;;;20.79;48.71
48872;BME280;36154;51.674;7.824;2023-04-29T10:39:26;101041.94;;;20.80;48.81
48872;BME280;36154;51.674;7.824;2023-04-29T10:41:56;101045.28;;;20.84;48.76
48872;BME280;36154;51.674;7.824;2023-04-29T10:44:21;101057.34;;;20.85;48.70
48872;BME280;36154;51.674;7.824;2023-04-29T10:46:48;101051.31;;;20.84;48.56
48872;BME280;36154;51.674;7.824;2023-04-29T10:49:13;101048.69;;;20.86;48.79
48872;BME280;36154;51.674;7.824;2023-04-29T10:51:41;101053.81;;;20.89;48.71
48872;BME280;36154;51.674;7.824;2023-04-29T10:54:16;101048.63;;;20.89;48.62
48872;BME280;36154;51.674;7.824;2023-04-29T10:56:49;101046.06;;;20.88;48.59
48872;BME280;36154;51.674;7.824;2023-04-29T10:59:19;101047.72;;;20.90;48.66
48872;BME280;36154;51.674;7.824;2023-04-29T11:01:49;101045.13;;;20.90;48.64
48872;BME280;36154;51.674;7.824;2023-04-29T11:04:17;101054.63;;;20.91;48.63
48872;BME280;36154;51.674;7.824;2023-04-29T11:06:56;101058.91;;;20.92;48.85
48872;BME280;36154;51.674;7.824;2023-04-29T11:09:26;101048.56;;;20.92;48.62
48872;BME280;36154;51.674;7.824;2023-04-29T11:11:59;101058.88;;;20.94;48.68
48872;BME280;36154;51.674;7.824;2023-04-29T11:14:29;101051.13;;;20.94;48.75
48872;BME280;36154;51.674;7.824;2023-04-29T11:17:17;101057.13;;;20.94;48.52
48872;BME280;36154;51.674;7.824;2023-04-29T11:19:51;101051.97;;;20.94;48.51
48872;BME280;36154;51.674;7.824;2023-04-29T11:22:26;101058.81;;;20.95;48.59
48872;BME280;36154;51.674;7.824;2023-04-29T11:24:55;101064.00;;;20.95;48.59
48872;BME280;36154;51.674;7.824;2023-04-29T11:27:23;101057.09;;;20.96;48.43
48872;BME280;36154;51.674;7.824;2023-04-29T11:29:53;101055.34;;;20.96;48.57
48872;BME280;36154;51.674;7.824;2023-04-29T11:32:30;101058.78;;;20.97;48.66
48872;BME280;36154;51.674;7.824;2023-04-29T11:35:13;101064.00;;;20.95;48.38
48872;BME280;36154;51.674;7.824;2023-04-29T11:37:39;101062.25;;;20.97;48.61
48872;BME280;36154;51.674;7.824;2023-04-29T11:40:05;101067.44;;;20.97;48.67
48872;BME280;36154;51.674;7.824;2023-04-29T11:42:35;101060.50;;;20.98;48.65
48872;BME280;36154;51.674;7.824;2023-04-29T11:45:05;101066.53;;;20.98;48.53
48872;BME280;36154;51.674;7.824;2023-04-29T11:47:30;101064.81;;;20.99;48.60
48872;BME280;36154;51.674;7.824;2023-04-29T11:50:09;101068.25;;;20.99;48.55
48872;BME280;36154;51.674;7.824;2023-04-29T11:52:37;101065.66;;;20.99;48.62
48872;BME280;36154;51.674;7.824;2023-04-29T11:55:03;101070.84;;;20.99;48.44
48872;BME280;36154;51.674;7.824;2023-04-29T11:57:28;101077.72;;;21.00;48.56
48872;BME280;36154;51.674;7.824;2023-04-29T11:59:56;101082.91;;;21.00;48.66
48872;BME280;36154;51.674;7.824;2023-04-29T12:02:22;101087.19;;;21.01;48.57
48872;BME280;36154;51.674;7.824;2023-04-29T12:04:47;101082.91;;;21.00;48.64
48872;BME280;36154;51.674;7.824;2023-04-29T12:07:16;101073.38;;;21.01;48.73
48872;BME280;36154;51.674;7.824;2023-04-29T12:09:45;101074.22;;;21.01;48.62
48872;BME280;36154;51.674;7.824;2023-04-29T12:12:12;101087.19;;;21.01;48.57
48872;BME280;36154;51.674;7.824;2023-04-29T12:14:38;101084.59;;;21.01;48.54
48872;BME280;36154;51.674;7.824;2023-04-29T12:17:04;101077.72;;;21.00;48.67
48872;BME280;36154;51.674;7.824;2023-04-29T12:19:30;101079.44;;;21.00;48.59
48872;BME280;36154;51.674;7.824;2023-04-29T12:21:59;101069.03;;;21.01;48.70
48872;BME280;36154;51.674;7.824;2023-04-29T12:24:25;101082.91;;;21.00;48.80
48872;BME280;36154;51.674;7.824;2023-04-29T12:26:51;101083.75;;;21.01;48.65
48872;BME280;36154;51.674;7.824;2023-04-29T12:29:20;101079.41;;;21.01;48.92
48872;BME280;36154;51.674;7.824;2023-04-29T12:31:49;101089.78;;;21.01;48.73
48872;BME280;36154;51.674;7.824;2023-04-29T12:34:15;101088.94;;;21.01;48.75
48872;BME280;36154;51.674;7.824;2023-04-29T12:36:41;101094.13;;;21.01;48.78
48872;BME280;36154;51.674;7.824;2023-04-29T12:39:06;101096.66;;;21.02;48.73
48872;BME280;36154;51.674;7.824;2023-04-29T12:41:43;101090.63;;;21.02;48.54
48872;BME280;36154;51.674;7.824;2023-04-29T12:44:09;101093.16;;;21.03;48.66
48872;BME280;36154;51.674;7.824;2023-04-29T12:46:36;101099.25;;;21.02;48.65
48872;BME280;36154;51.674;7.824;2023-04-29T12:49:03;101088.00;;;21.03;48.70
48872;BME280;36154;51.674;7.824;2023-04-29T12:51:32;101088.00;;;21.03;48.72
48872;BME280;36154;51.674;7.824;2023-04-29T12:54:01;101084.53;;;21.04;48.62
48872;BME280;36154;51.674;7.824;2023-04-29T12:56:34;101094.00;;;21.05;48.75
48872;BME280;36154;51.674;7.824;2023-04-29T12:59:06;101098.28;;;21.07;48.67
48872;BME280;36154;51.674;7.824;2023-04-29T13:03:48;101104.16;;;21.51;56.40
48872;BME280;36154;51.674;7.824;2023-04-29T13:06:15;101095.56;;;21.49;51.69
48872;BME280;36154;51.674;7.824;2023-04-29T13:08:42;101094.91;;;21.40;50.23